Aérodrome :
LOGIN :

S'inscrire | Disclaimer

   EN    FR    IT 

 










Légende :    VFR   VFR Marginal   IFR   IFR Intensif   IFR Très Intensif
Visi : 
Plafond : 
>= 8 km
>= 3000ft
5 à 8 km
1000 à 3000 ft
1500m à 5 km
500 à 1000 ft
800 à 1500m
200 à 500 ft
< 800m
< 200 ft
Symboles :   Orages  Brouillard  Fortes neiges  Fortes précipitations  Vent > 20 kt
SIGMETs :   Divers  Orages  Givrage  Turbulence  Onde Orograph.  Cendres Volcan.







- Altitude de l'aérodrome : 1058 ft
- Code IATA : SCN


EDDR - Saarbrücken

DERNIER METAR :
  • 192020Z 29003KT 9999 FEW033 SCT070 09/09 Q1021 NOSIG

METARs EXPIRÉS :
  • 191950Z 32004KT 290V360 9999 FEW033 SCT070 09/09 Q1021 NOSIG
  • 191920Z 29004KT 250V330 9999 FEW033 BKN070 10/09 Q1020 NOSIG
  • 191850Z 28003KT 9999 FEW033 BKN070 11/10 Q1020 NOSIG
  • 191820Z 29004KT 9999 FEW027 SCT060 10/10 Q1020 NOSIG
  • 191750Z 28004KT 9999 FEW025 SCT060 11/10 Q1020 NOSIG

TAF TAF EDDR
Valide du 19 à 18h jusqu'au 20 à 18h UTC


191700Z 1918/2018 25004KT 9999 FEW030
BECMG 1923/2001 1500 BCFG
TEMPO 2001/2008 0200 FG VV001
BECMG 2008/2010 9999
Pas de NOTAMs connus pour ce terrain.



MET'MAP, la Météo Aéronautique d'un coup d'oeil ! - Copyright ORBIFLY Décembre 2007 - Disclaimer

ORBIFLY MET'MAP TEAM :

Programmation & Développement : Alexandra Zaïnal
Conception & Développement : Baudouin d'Aumeries
Co-Programmation & Développement : Marc-Olivier Méhu
Soutien technique & logistique : Manuel Goepfert

Contact : metmap@orbifly.com




SOURCES & CREDITS :

   NOAA